Time;durP1;ratioP1;P1;durP2;ratioP2;P2;SDS_P1;SDS_P2;PMS_P1;PMS_P2;Temp;Humidity;BMP_temperature;BMP_pressure;BME280_temperature;BME280_humidity;BME280_pressure;Samples;Min_cycle;Max_cycle;Signal;HPM_P1;HPM_P2
2021/05/22 00:00:20;;;;;;;9.00;1.85;;;13.30;67.10;;;;;;4976130;28;20125;-90
2021/05/22 00:02:45;;;;;;;10.93;1.92;;;13.30;67.20;;;;;;4976541;28;20034;-90
2021/05/22 00:05:12;;;;;;;7.47;1.58;;;13.20;67.30;;;;;;4975606;28;20029;-90
2021/05/22 00:07:37;;;;;;;6.75;1.60;;;13.20;67.50;;;;;;4976275;28;20029;-90
2021/05/22 00:10:10;;;;;;;5.35;1.20;;;13.30;67.20;;;;;;4976625;28;20440;-89
2021/05/22 00:12:40;;;;;;;5.63;1.50;;;13.30;67.20;;;;;;4975631;28;20494;-90
2021/05/22 00:15:09;;;;;;;9.65;1.85;;;13.20;67.40;;;;;;4975539;28;20018;-90
2021/05/22 00:17:34;;;;;;;6.43;1.83;;;13.20;67.40;;;;;;4975867;28;20113;-90
2021/05/22 00:20:01;;;;;;;12.07;1.60;;;13.20;67.50;;;;;;4993425;28;20102;-89
2021/05/22 00:22:27;;;;;;;4.60;1.35;;;13.10;67.70;;;;;;4992939;28;20030;-90
2021/05/22 00:24:53;;;;;;;8.38;1.42;;;13.10;67.80;;;;;;4975952;28;20080;-89
2021/05/22 00:27:19;;;;;;;6.53;1.60;;;13.00;67.70;;;;;;4975149;28;20035;-91
2021/05/22 00:29:44;;;;;;;8.18;1.48;;;13.00;67.80;;;;;;4975251;28;20053;-89
2021/05/22 00:32:10;;;;;;;9.40;1.58;;;13.00;67.80;;;;;;4975517;28;20026;-90
2021/05/22 00:34:35;;;;;;;6.88;1.50;;;13.00;67.90;;;;;;4975564;28;20114;-90
2021/05/22 00:37:01;;;;;;;5.78;1.63;;;13.00;68.40;;;;;;4975665;28;20528;-89
2021/05/22 00:39:26;;;;;;;8.98;1.85;;;12.90;69.70;;;;;;4975810;28;20033;-90
2021/05/22 00:41:52;;;;;;;7.07;1.45;;;12.90;68.40;;;;;;4975291;28;20022;-90
2021/05/22 00:44:18;;;;;;;8.15;1.58;;;12.90;68.40;;;;;;4975652;28;20031;-89
2021/05/22 00:46:44;;;;;;;7.55;1.50;;;12.90;68.50;;;;;;4975425;28;20033;-90
2021/05/22 00:49:09;;;;;;;6.60;1.80;;;12.90;68.40;;;;;;4975937;28;20022;-90
2021/05/22 00:51:35;;;;;;;8.68;1.60;;;12.90;68.80;;;;;;4975489;28;20034;-90
2021/05/22 00:54:01;;;;;;;9.48;1.42;;;12.80;68.70;;;;;;4975510;28;20057;-90
2021/05/22 00:56:27;;;;;;;8.25;1.48;;;12.90;68.40;;;;;;4991940;28;20065;-90
2021/05/22 00:58:52;;;;;;;5.55;1.55;;;12.90;68.50;;;;;;4975563;28;20034;-91
2021/05/22 01:01:18;;;;;;;7.80;1.98;;;12.90;68.60;;;;;;4993288;28;20030;-91
2021/05/22 01:03:48;;;;;;;5.50;1.48;;;12.80;69.40;;;;;;4975162;28;20029;-90
2021/05/22 01:06:18;;;;;;;5.95;1.30;;;12.80;68.80;;;;;;4975387;28;20053;-90
2021/05/22 01:08:47;;;;;;;7.72;2.10;;;12.80;69.00;;;;;;4974895;28;20548;-90
2021/05/22 01:11:20;;;;;;;8.15;1.70;;;12.80;69.00;;;;;;4975156;28;20559;-91
2021/05/22 01:13:52;;;;;;;7.75;1.80;;;12.80;69.00;;;;;;4975397;28;20038;-90
2021/05/22 01:16:20;;;;;;;7.43;1.55;;;12.80;69.00;;;;;;4992316;28;20034;-90
2021/05/22 01:18:47;;;;;;;7.90;1.40;;;12.70;68.90;;;;;;4991880;28;20101;-90
2021/05/22 01:21:13;;;;;;;6.93;1.38;;;12.70;69.50;;;;;;4992757;28;20037;-90
2021/05/22 01:23:42;;;;;;;7.22;1.40;;;12.70;69.20;;;;;;4975227;28;20038;-91
2021/05/22 01:26:09;;;;;;;6.85;1.52;;;12.70;69.50;;;;;;4975480;28;20100;-90
2021/05/22 01:28:36;;;;;;;6.82;1.25;;;12.70;69.30;;;;;;4974408;28;20026;-90
2021/05/22 01:31:05;;;;;;;8.10;1.38;;;12.60;69.50;;;;;;4974665;28;20394;-90
2021/05/22 01:33:30;;;;;;;8.40;2.15;;;12.60;69.70;;;;;;4975134;28;20081;-91
2021/05/22 01:35:56;;;;;;;5.53;1.48;;;12.60;69.90;;;;;;4974664;28;20429;-90
2021/05/22 01:38:22;;;;;;;7.90;1.50;;;12.70;69.40;;;;;;4991873;28;20033;-90
2021/05/22 01:40:50;;;;;;;8.00;1.70;;;12.60;69.60;;;;;;4974358;28;20029;-90
2021/05/22 01:43:16;;;;;;;10.00;1.70;;;12.60;69.70;;;;;;4991970;28;20046;-88
2021/05/22 01:45:45;;;;;;;7.28;1.50;;;12.60;69.60;;;;;;4974580;28;20033;-90
2021/05/22 01:48:24;;;;;;;6.53;1.52;;;12.70;70.20;;;;;;4974556;28;20026;-89
2021/05/22 01:51:00;;;;;;;5.75;1.58;;;12.60;69.70;;;;;;4974567;28;20233;-90
2021/05/22 01:53:27;;;;;;;9.45;1.55;;;12.60;69.60;;;;;;4991721;28;20386;-90
2021/05/22 01:55:54;;;;;;;6.18;1.45;;;12.60;69.60;;;;;;4974533;28;20041;-91
2021/05/22 01:58:20;;;;;;;7.32;1.88;;;12.60;69.60;;;;;;4974416;28;20027;-90
2021/05/22 02:00:45;;;;;;;8.00;1.42;;;12.50;70.00;;;;;;4974188;28;20031;-90
2021/05/22 02:03:37;;;;;;;6.45;1.40;;;12.50;69.70;;;;;;4992074;28;20033;-90
2021/05/22 02:06:09;;;;;;;7.07;1.42;;;12.50;70.40;;;;;;4992164;28;20087;-89
2021/05/22 02:08:38;;;;;;;10.48;2.38;;;12.50;69.90;;;;;;4991692;28;20037;-90
2021/05/22 02:11:05;;;;;;;7.68;1.50;;;12.40;69.90;;;;;;4973422;28;20113;-90
2021/05/22 02:13:31;;;;;;;9.88;1.70;;;12.50;69.80;;;;;;4973362;28;20038;-92
2021/05/22 02:16:00;;;;;;;8.82;1.70;;;12.50;69.50;;;;;;4991151;28;20037;-90
2021/05/22 02:18:28;;;;;;;13.27;1.48;;;12.50;70.60;;;;;;4974795;28;20501;-90
2021/05/22 02:20:57;;;;;;;10.15;1.38;;;12.50;69.60;;;;;;4974238;28;20038;-91
2021/05/22 02:23:24;;;;;;;7.28;1.55;;;12.50;69.60;;;;;;4975234;28;20026;-91
2021/05/22 02:25:54;;;;;;;8.60;1.45;;;12.40;69.80;;;;;;4974652;28;20565;-90
2021/05/22 02:28:20;;;;;;;10.48;1.65;;;12.30;69.70;;;;;;4973802;28;20041;-90
2021/05/22 02:30:46;;;;;;;7.80;1.63;;;12.30;69.90;;;;;;4973061;28;20030;-90
2021/05/22 02:33:14;;;;;;;7.57;1.50;;;12.30;69.90;;;;;;4991013;28;20057;-90
2021/05/22 02:35:41;;;;;;;8.57;1.50;;;12.30;69.80;;;;;;4973642;28;20113;-90
2021/05/22 02:38:17;;;;;;;5.88;1.38;;;12.30;70.00;;;;;;4973603;28;20022;-89
2021/05/22 02:40:43;;;;;;;9.85;1.90;;;12.30;69.90;;;;;;4972710;28;20129;-91
2021/05/22 02:43:11;;;;;;;8.65;1.65;;;12.30;69.80;;;;;;4972964;28;20494;-90
2021/05/22 02:45:40;;;;;;;10.40;1.90;;;12.40;69.70;;;;;;4973984;28;20030;-90
2021/05/22 02:48:09;;;;;;;8.95;1.50;;;12.30;69.80;;;;;;4973331;28;20023;-90
2021/05/22 02:50:36;;;;;;;6.45;1.58;;;12.30;69.70;;;;;;4972102;28;20030;-89
2021/05/22 02:53:02;;;;;;;6.07;1.38;;;12.30;69.90;;;;;;4973042;28;20444;-89
2021/05/22 02:55:29;;;;;;;6.32;1.42;;;12.20;70.00;;;;;;4973100;28;20026;-90
2021/05/22 02:57:56;;;;;;;6.15;1.27;;;12.30;69.80;;;;;;4973480;28;20023;-90
2021/05/22 03:00:22;;;;;;;7.70;1.52;;;12.30;69.70;;;;;;4973292;28;20134;-89
2021/05/22 03:02:48;;;;;;;9.25;1.75;;;12.30;69.80;;;;;;4973225;28;20062;-90
2021/05/22 03:05:15;;;;;;;8.20;1.60;;;12.20;70.00;;;;;;4973383;28;20089;-90
2021/05/22 03:07:41;;;;;;;8.68;1.60;;;12.10;70.20;;;;;;4973118;28;20113;-90
2021/05/22 03:10:07;;;;;;;10.77;1.63;;;12.10;70.20;;;;;;4990597;28;20114;-90
2021/05/22 03:12:35;;;;;;;6.90;1.42;;;12.10;70.30;;;;;;4972655;28;20126;-89
2021/05/22 03:15:03;;;;;;;8.13;1.23;;;12.10;70.30;;;;;;4972942;28;20050;-89
2021/05/22 03:17:29;;;;;;;6.20;1.50;;;12.10;70.30;;;;;;4990489;28;20022;-90
2021/05/22 03:19:54;;;;;;;9.05;1.50;;;12.10;70.40;;;;;;4973393;28;20121;-89
2021/05/22 03:22:20;;;;;;;9.52;1.50;;;12.10;70.30;;;;;;4972730;28;20023;-91
2021/05/22 03:24:45;;;;;;;8.45;1.55;;;12.10;70.50;;;;;;4973330;28;20026;-91
2021/05/22 03:27:11;;;;;;;7.82;1.40;;;12.10;70.20;;;;;;4973120;28;20085;-91
2021/05/22 03:29:37;;;;;;;6.75;1.23;;;12.10;70.40;;;;;;4973664;28;20026;-88
2021/05/22 03:32:03;;;;;;;8.50;1.77;;;12.10;70.20;;;;;;4972994;28;20482;-90
2021/05/22 03:34:30;;;;;;;5.43;1.45;;;12.10;70.20;;;;;;4973813;28;20481;-91
2021/05/22 03:36:56;;;;;;;9.00;1.65;;;12.10;70.20;;;;;;4972646;28;20022;-90
2021/05/22 03:39:21;;;;;;;7.38;1.60;;;12.00;70.30;;;;;;4972899;28;20062;-89
2021/05/22 03:41:47;;;;;;;8.02;1.40;;;12.00;70.30;;;;;;4972695;28;20065;-89
2021/05/22 03:44:12;;;;;;;7.13;1.67;;;12.00;70.60;;;;;;4973048;28;20108;-90
2021/05/22 03:46:38;;;;;;;9.68;1.40;;;12.00;70.60;;;;;;4972768;28;20026;-89
2021/05/22 03:49:04;;;;;;;12.38;1.60;;;11.90;70.60;;;;;;4973352;28;20540;-91
2021/05/22 03:51:30;;;;;;;7.93;1.60;;;11.80;70.80;;;;;;4973316;28;20022;-91
2021/05/22 03:53:55;;;;;;;4.80;1.70;;;11.90;70.60;;;;;;4973116;28;20023;-90
2021/05/22 03:56:21;;;;;;;10.07;1.70;;;11.90;70.70;;;;;;4973073;28;20068;-89
2021/05/22 03:58:47;;;;;;;11.80;1.83;;;11.90;70.60;;;;;;4973636;28;20030;-89
2021/05/22 04:01:12;;;;;;;7.40;1.45;;;11.90;71.10;;;;;;4973511;28;20028;-91
2021/05/22 04:03:38;;;;;;;6.63;1.20;;;11.90;70.90;;;;;;4973148;28;20086;-91
2021/05/22 04:06:04;;;;;;;7.25;1.40;;;11.90;71.00;;;;;;4972973;28;20026;-90
2021/05/22 04:08:29;;;;;;;5.97;1.42;;;11.90;70.70;;;;;;4973222;28;20031;-88
2021/05/22 04:10:55;;;;;;;8.68;2.00;;;11.90;70.90;;;;;;4973711;28;20070;-90
2021/05/22 04:13:21;;;;;;;5.15;1.20;;;12.00;70.50;;;;;;4976162;28;20034;-90
2021/05/22 04:15:46;;;;;;;9.07;1.50;;;11.90;70.80;;;;;;4976273;28;20026;-90
2021/05/22 04:18:13;;;;;;;6.97;1.30;;;12.00;70.70;;;;;;4972718;28;20126;-90
2021/05/22 04:20:39;;;;;;;7.35;1.60;;;12.00;70.50;;;;;;4972892;28;20434;-91
2021/05/22 04:23:04;;;;;;;8.80;1.40;;;12.00;70.80;;;;;;4973173;28;20030;-90
2021/05/22 04:25:30;;;;;;;7.78;1.38;;;12.00;70.50;;;;;;4975689;28;20061;-91
2021/05/22 04:27:56;;;;;;;8.55;1.60;;;12.10;70.60;;;;;;4993736;28;20102;-90
2021/05/22 04:30:22;;;;;;;8.57;1.60;;;12.10;71.10;;;;;;4975739;28;20026;-90
2021/05/22 04:32:48;;;;;;;10.25;1.50;;;12.10;70.40;;;;;;4976082;28;20037;-90
2021/05/22 04:35:13;;;;;;;5.05;1.17;;;12.10;70.50;;;;;;4975247;28;20023;-90
2021/05/22 04:37:39;;;;;;;8.43;1.65;;;12.10;70.60;;;;;;4975828;28;20019;-90
2021/05/22 04:40:05;;;;;;;9.00;2.13;;;12.00;70.60;;;;;;4975680;28;20367;-90
2021/05/22 04:42:32;;;;;;;8.25;1.15;;;12.10;70.80;;;;;;4975516;28;20033;-89
2021/05/22 04:44:57;;;;;;;11.20;1.58;;;12.10;70.80;;;;;;4992887;28;20035;-90
2021/05/22 04:47:23;;;;;;;10.75;1.70;;;12.10;70.50;;;;;;4993367;28;20109;-91
2021/05/22 04:49:48;;;;;;;7.30;1.52;;;12.20;70.50;;;;;;4975458;28;20056;-91
2021/05/22 04:52:14;;;;;;;8.98;1.27;;;12.20;70.30;;;;;;4992695;28;20080;-90
2021/05/22 04:54:40;;;;;;;8.63;1.65;;;12.20;70.40;;;;;;4992926;28;20318;-90
2021/05/22 04:57:06;;;;;;;6.93;1.08;;;12.20;70.40;;;;;;4975409;28;20051;-90
2021/05/22 04:59:32;;;;;;;7.35;1.13;;;12.20;70.40;;;;;;4975540;28;20030;-91
2021/05/22 05:01:58;;;;;;;7.00;1.60;;;12.20;70.70;;;;;;4975432;28;20473;-91
2021/05/22 05:04:23;;;;;;;7.07;1.27;;;12.30;70.20;;;;;;4975000;28;20137;-90
2021/05/22 05:06:49;;;;;;;12.27;1.80;;;12.30;69.90;;;;;;4975219;28;20030;-90
2021/05/22 05:09:14;;;;;;;6.88;1.23;;;12.30;70.00;;;;;;4975479;28;20022;-91
2021/05/22 05:11:40;;;;;;;9.48;1.42;;;12.40;69.90;;;;;;4992981;28;20030;-90
2021/05/22 05:14:06;;;;;;;8.68;1.73;;;12.40;69.90;;;;;;4973911;28;20097;-89
2021/05/22 05:16:31;;;;;;;6.93;1.25;;;12.40;70.20;;;;;;4974545;28;20033;-90
2021/05/22 05:18:57;;;;;;;9.85;1.63;;;12.30;70.40;;;;;;4974810;28;20441;-90
2021/05/22 05:21:22;;;;;;;8.48;1.60;;;12.40;70.60;;;;;;4975018;28;20050;-89
2021/05/22 05:23:48;;;;;;;7.53;1.52;;;12.30;70.60;;;;;;4974533;28;20093;-90
2021/05/22 05:26:14;;;;;;;5.53;1.30;;;12.30;70.80;;;;;;4975543;28;20382;-91
2021/05/22 05:28:39;;;;;;;10.07;1.83;;;12.20;70.80;;;;;;4975504;28;20030;-90
2021/05/22 05:31:06;;;;;;;7.38;1.55;;;12.30;70.90;;;;;;4974491;28;20324;-90
2021/05/22 05:33:32;;;;;;;7.38;1.33;;;12.30;70.80;;;;;;4974602;28;20036;-90
2021/05/22 05:35:57;;;;;;;8.88;1.50;;;12.30;71.00;;;;;;4975025;28;20046;-90
2021/05/22 05:38:24;;;;;;;13.13;1.83;;;12.30;70.90;;;;;;4974818;28;20088;-90
2021/05/22 05:40:49;;;;;;;6.45;1.33;;;12.30;71.00;;;;;;4994204;28;20034;-90
2021/05/22 05:43:18;;;;;;;11.63;1.70;;;12.30;70.90;;;;;;4975366;28;20096;-90
2021/05/22 05:45:44;;;;;;;8.40;1.60;;;12.30;71.00;;;;;;4970806;28;20034;-89
2021/05/22 05:48:10;;;;;;;5.10;1.35;;;12.30;71.10;;;;;;4970833;28;20105;-90
2021/05/22 05:50:35;;;;;;;9.90;1.80;;;12.40;71.10;;;;;;4971244;28;20035;-91
2021/05/22 05:53:02;;;;;;;10.27;1.50;;;12.50;70.80;;;;;;4971088;28;20019;-90
2021/05/22 05:55:28;;;;;;;7.18;1.73;;;12.50;71.00;;;;;;4972847;28;20505;-92
2021/05/22 05:57:56;;;;;;;10.98;1.55;;;12.50;70.80;;;;;;4974488;28;20026;-91
2021/05/22 06:00:23;;;;;;;8.93;2.00;;;12.60;70.90;;;;;;4974444;28;20390;-90
2021/05/22 06:02:48;;;;;;;9.48;1.52;;;12.70;70.00;;;;;;4974300;28;20041;-90
2021/05/22 06:05:14;;;;;;;8.27;1.50;;;12.70;70.20;;;;;;4974390;28;20026;-90
2021/05/22 06:07:40;;;;;;;11.93;1.70;;;12.70;70.00;;;;;;4990663;28;20030;-90
2021/05/22 06:10:07;;;;;;;6.30;1.50;;;12.70;69.70;;;;;;4973935;28;20410;-90
2021/05/22 06:12:34;;;;;;;8.57;1.60;;;12.70;70.00;;;;;;4974084;28;20041;-91
2021/05/22 06:16:02;;;;;;;10.40;1.65;;;12.70;69.80;;;;;;4973767;28;20029;-89
2021/05/22 06:17:54;;;;;;;9.65;1.60;;;12.70;69.80;;;;;;4972395;28;20465;-89
2021/05/22 06:20:20;;;;;;;10.32;1.50;;;12.60;70.20;;;;;;4973998;28;20030;-90
2021/05/22 06:22:46;;;;;;;9.65;1.75;;;12.60;70.00;;;;;;4973975;28;20423;-89
2021/05/22 06:25:12;;;;;;;7.95;1.30;;;12.60;70.10;;;;;;4973721;28;20030;-90
2021/05/22 06:27:39;;;;;;;9.73;1.67;;;12.70;70.30;;;;;;4971881;28;20482;-90
2021/05/22 06:30:06;;;;;;;8.45;1.60;;;12.60;70.40;;;;;;4973941;28;20026;-90
2021/05/22 06:32:32;;;;;;;7.60;1.42;;;12.70;70.00;;;;;;4973680;28;20121;-90
2021/05/22 06:34:58;;;;;;;9.48;1.67;;;12.70;69.90;;;;;;4974110;28;20296;-90
2021/05/22 06:37:25;;;;;;;10.15;1.80;;;12.70;70.20;;;;;;4991212;28;20018;-89
2021/05/22 06:39:51;;;;;;;9.77;1.80;;;12.70;70.00;;;;;;4990719;28;20026;-90
2021/05/22 06:42:17;;;;;;;8.05;1.45;;;12.70;69.90;;;;;;4972800;28;20059;-90
2021/05/22 06:44:52;;;;;;;7.57;1.50;;;12.70;70.40;;;;;;4991274;28;20030;-89
2021/05/22 06:47:18;;;;;;;9.02;1.70;;;12.70;70.50;;;;;;4973183;28;20037;-90
2021/05/22 06:49:44;;;;;;;7.60;1.55;;;12.70;71.10;;;;;;4973642;28;20030;-90
2021/05/22 06:52:09;;;;;;;12.00;1.90;;;12.70;71.10;;;;;;4973517;28;20192;-90
2021/05/22 06:54:35;;;;;;;14.60;1.83;;;12.70;71.30;;;;;;4973401;28;20022;-89
2021/05/22 06:57:00;;;;;;;6.60;1.60;;;12.70;71.40;;;;;;4973019;28;20469;-89
2021/05/22 06:59:26;;;;;;;7.65;1.88;;;12.70;71.80;;;;;;4973513;28;20177;-89
2021/05/22 07:01:52;;;;;;;10.98;1.88;;;12.70;72.40;;;;;;4973190;28;20117;-90
2021/05/22 07:04:18;;;;;;;11.77;2.13;;;12.70;72.50;;;;;;4990907;28;20088;-91
2021/05/22 07:06:43;;;;;;;13.55;1.90;;;12.60;72.90;;;;;;4973158;28;20058;-89
2021/05/22 07:09:09;;;;;;;10.15;1.70;;;12.50;73.00;;;;;;4972994;28;20034;-90
2021/05/22 07:11:35;;;;;;;9.15;1.83;;;12.60;73.50;;;;;;4973091;28;20036;-89
2021/05/22 07:14:01;;;;;;;11.55;2.20;;;12.50;73.70;;;;;;4991229;28;20026;-89
2021/05/22 07:16:26;;;;;;;10.98;1.60;;;12.40;74.40;;;;;;4990080;28;20030;-89
2021/05/22 07:18:52;;;;;;;8.60;1.70;;;12.40;75.00;;;;;;4990517;28;20034;-90
2021/05/22 07:21:18;;;;;;;10.52;1.90;;;12.30;74.60;;;;;;4973238;28;20536;-91
2021/05/22 07:23:43;;;;;;;12.10;2.03;;;12.30;75.40;;;;;;4973043;28;20134;-89
2021/05/22 07:26:09;;;;;;;8.57;1.70;;;12.40;75.70;;;;;;4973041;28;20409;-90
2021/05/22 07:28:35;;;;;;;9.55;2.08;;;12.30;75.60;;;;;;4973660;28;20041;-89
2021/05/22 07:31:01;;;;;;;7.68;2.30;;;12.30;76.00;;;;;;4973252;28;20120;-91
2021/05/22 07:33:28;;;;;;;10.90;2.00;;;12.20;78.20;;;;;;4991012;28;20033;-89
2021/05/22 07:35:54;;;;;;;6.97;1.50;;;12.30;77.10;;;;;;4990486;28;20029;-89
2021/05/22 07:38:20;;;;;;;8.82;1.58;;;12.20;76.80;;;;;;4976214;28;20018;-89
2021/05/22 07:40:46;;;;;;;9.40;1.90;;;12.10;77.20;;;;;;4976327;28;20038;-88
2021/05/22 07:43:12;;;;;;;12.18;1.98;;;12.10;77.50;;;;;;4994229;28;20216;-91
2021/05/22 07:45:38;;;;;;;10.73;1.80;;;12.10;77.80;;;;;;4977552;28;20030;-90
2021/05/22 07:48:04;;;;;;;9.32;1.73;;;12.20;78.30;;;;;;4977061;28;20036;-90
2021/05/22 07:50:31;;;;;;;11.43;1.90;;;12.10;78.50;;;;;;4975896;28;20034;-90
2021/05/22 07:52:57;;;;;;;7.32;1.80;;;12.20;79.20;;;;;;4994001;28;20277;-89
2021/05/22 07:55:22;;;;;;;9.73;2.33;;;12.10;78.80;;;;;;4983818;28;20030;-89
2021/05/22 07:57:49;;;;;;;8.15;1.70;;;12.20;79.10;;;;;;5013640;28;20064;-89
2021/05/22 08:00:15;;;;;;;10.48;2.00;;;12.20;79.40;;;;;;4988992;28;20042;-90
2021/05/22 08:02:42;;;;;;;7.55;1.63;;;12.00;80.00;;;;;;4994078;28;20409;-89
2021/05/22 08:05:08;;;;;;;15.75;2.00;;;12.00;80.30;;;;;;4994338;28;20032;-90
2021/05/22 08:07:34;;;;;;;11.32;2.22;;;11.90;80.60;;;;;;5005352;28;20136;-90
2021/05/22 08:10:00;;;;;;;11.13;2.35;;;11.90;80.50;;;;;;4992999;28;20338;-89
2021/05/22 08:12:26;;;;;;;6.63;1.55;;;11.80;81.10;;;;;;4993435;28;20033;-91
2021/05/22 08:14:52;;;;;;;12.52;1.70;;;11.90;81.30;;;;;;4976344;28;20026;-88
2021/05/22 08:17:18;;;;;;;8.27;1.80;;;11.90;81.60;;;;;;4993644;28;20022;-90
2021/05/22 08:19:44;;;;;;;8.75;1.75;;;11.90;81.70;;;;;;4976541;28;20058;-90
2021/05/22 08:22:09;;;;;;;9.10;2.22;;;11.90;82.20;;;;;;4975041;28;20460;-90
2021/05/22 08:24:35;;;;;;;8.32;1.70;;;11.80;82.90;;;;;;4976085;28;20030;-89
2021/05/22 08:27:02;;;;;;;11.55;2.10;;;11.70;84.40;;;;;;4975420;28;20113;-89
2021/05/22 08:29:27;;;;;;;9.73;1.73;;;11.80;82.60;;;;;;4976894;28;20028;-90
2021/05/22 08:31:53;;;;;;;8.25;1.90;;;11.80;82.50;;;;;;4978419;28;20041;-89
2021/05/22 08:34:19;;;;;;;10.15;1.80;;;11.80;82.70;;;;;;4976187;28;20038;-90
2021/05/22 08:36:44;;;;;;;7.95;1.77;;;11.80;82.60;;;;;;4975390;28;20034;-90
2021/05/22 08:39:10;;;;;;;9.52;2.15;;;11.80;82.90;;;;;;4975894;28;20093;-89
2021/05/22 08:41:37;;;;;;;5.80;1.75;;;11.80;83.20;;;;;;4975148;28;20031;-89
2021/05/22 08:44:04;;;;;;;11.15;1.92;;;11.90;83.30;;;;;;4975331;28;20690;-90
2021/05/22 08:46:31;;;;;;;10.25;2.00;;;11.90;83.20;;;;;;4975923;28;20034;-91
2021/05/22 08:48:57;;;;;;;10.23;2.03;;;11.90;83.80;;;;;;4974946;28;20121;-89
2021/05/22 08:51:22;;;;;;;9.25;1.90;;;11.90;83.40;;;;;;4975055;28;20122;-90
2021/05/22 08:53:48;;;;;;;8.43;1.80;;;11.80;83.70;;;;;;4975707;28;20033;-88
2021/05/22 08:56:14;;;;;;;10.82;2.35;;;11.70;84.00;;;;;;4975408;28;20294;-90
2021/05/22 08:58:40;;;;;;;11.07;2.42;;;11.70;83.70;;;;;;4976249;28;20038;-90
2021/05/22 09:01:06;;;;;;;9.80;2.00;;;11.70;83.60;;;;;;4977089;28;20045;-90
2021/05/22 09:03:32;;;;;;;9.50;1.55;;;11.80;83.90;;;;;;4993532;28;20034;-90
2021/05/22 09:05:58;;;;;;;14.20;2.20;;;11.90;83.90;;;;;;4999095;28;20034;-89
2021/05/22 09:08:23;;;;;;;11.02;2.35;;;11.80;83.70;;;;;;4978374;28;20030;-90
2021/05/22 09:10:53;;;;;;;9.65;2.05;;;11.90;83.80;;;;;;4975545;28;20041;-90
2021/05/22 09:13:21;;;;;;;9.27;1.83;;;11.80;83.70;;;;;;4992747;28;20117;-89
2021/05/22 09:15:48;;;;;;;8.15;2.03;;;11.90;83.80;;;;;;4975627;28;20026;-89
2021/05/22 09:18:19;;;;;;;4.93;1.60;;;11.80;84.80;;;;;;4975446;28;20482;-90
2021/05/22 09:20:53;;;;;;;13.75;2.60;;;11.70;84.20;;;;;;4975179;28;20110;-89
2021/05/22 09:23:24;;;;;;;8.65;1.90;;;11.70;84.50;;;;;;4974517;28;20038;-89
2021/05/22 09:25:55;;;;;;;9.65;2.03;;;11.70;84.10;;;;;;4975978;28;20026;-90
2021/05/22 09:28:23;;;;;;;7.88;1.98;;;11.70;84.90;;;;;;4974745;28;20030;-90
2021/05/22 09:30:51;;;;;;;6.60;2.03;;;11.70;84.70;;;;;;4975212;28;20041;-89
2021/05/22 09:33:28;;;;;;;8.23;1.98;;;11.70;85.00;;;;;;4974036;28;20034;-89
2021/05/22 09:35:59;;;;;;;6.45;1.90;;;11.70;84.70;;;;;;4974722;28;20023;-89
2021/05/22 09:38:41;;;;;;;8.48;1.98;;;11.70;84.70;;;;;;4974685;28;20050;-89
2021/05/22 09:41:14;;;;;;;7.25;1.77;;;11.70;85.20;;;;;;4975189;28;20405;-89
2021/05/22 09:43:39;;;;;;;12.02;2.30;;;11.70;85.50;;;;;;4974881;28;20057;-90
2021/05/22 09:46:10;;;;;;;10.57;2.00;;;11.70;84.80;;;;;;4991748;28;20490;-89
2021/05/22 09:48:37;;;;;;;7.43;1.75;;;11.70;85.00;;;;;;4991736;28;20019;-90
2021/05/22 09:51:03;;;;;;;10.18;2.10;;;11.70;85.20;;;;;;4991490;28;20084;-88
2021/05/22 09:53:37;;;;;;;8.02;1.70;;;11.80;84.80;;;;;;4973351;28;20049;-90
2021/05/22 09:56:17;;;;;;;4.50;1.60;;;11.80;85.40;;;;;;4973477;28;20480;-89
2021/05/22 09:58:45;;;;;;;12.75;1.98;;;11.80;85.70;;;;;;4974536;28;20486;-89
2021/05/22 10:01:12;;;;;;;7.43;2.00;;;11.80;86.10;;;;;;4974110;28;20042;-90
2021/05/22 10:03:38;;;;;;;6.45;2.08;;;11.70;85.50;;;;;;4991228;28;20035;-89
2021/05/22 10:06:04;;;;;;;10.68;2.33;;;11.70;85.70;;;;;;4973945;28;20041;-91
2021/05/22 10:08:30;;;;;;;10.25;2.15;;;11.70;85.70;;;;;;4973383;28;20394;-90
2021/05/22 10:10:57;;;;;;;8.90;2.00;;;11.80;85.50;;;;;;4974510;28;20030;-89
2021/05/22 10:13:24;;;;;;;6.40;2.22;;;11.80;85.30;;;;;;4991387;28;20469;-90
2021/05/22 10:15:52;;;;;;;5.35;2.00;;;11.80;85.20;;;;;;4977752;28;20117;-89
2021/05/22 10:18:19;;;;;;;8.80;2.08;;;11.70;85.50;;;;;;4981391;28;20084;-90
2021/05/22 10:20:45;;;;;;;7.72;2.13;;;11.80;86.40;;;;;;4973796;28;20774;-90
2021/05/22 10:23:11;;;;;;;8.45;2.10;;;11.90;85.50;;;;;;4974511;28;20030;-90
2021/05/22 10:25:39;;;;;;;7.55;2.00;;;11.80;85.90;;;;;;4968531;28;20035;-90
2021/05/22 10:28:05;;;;;;;7.28;2.30;;;11.80;86.30;;;;;;4973811;28;20137;-89
2021/05/22 10:30:31;;;;;;;6.07;2.10;;;11.90;85.50;;;;;;4991270;28;20030;-90
2021/05/22 10:33:11;;;;;;;5.63;1.65;;;11.90;85.50;;;;;;4974142;28;20026;-89
2021/05/22 10:35:49;;;;;;;6.10;2.03;;;12.00;86.10;;;;;;4973824;28;20018;-89
2021/05/22 10:38:33;;;;;;;8.30;2.65;;;12.00;86.00;;;;;;4974159;28;20032;-89
2021/05/22 10:40:59;;;;;;;6.95;2.17;;;12.00;86.10;;;;;;4991574;28;20037;-90
2021/05/22 10:43:46;;;;;;;10.65;2.30;;;12.00;85.80;;;;;;4974342;28;20026;-90
2021/05/22 10:46:17;;;;;;;8.88;2.03;;;12.00;86.50;;;;;;4974108;28;20041;-87
2021/05/22 10:48:48;;;;;;;10.90;2.20;;;12.00;85.90;;;;;;4974276;28;20046;-89
2021/05/22 10:51:32;;;;;;;10.25;2.90;;;12.10;85.90;;;;;;4991436;28;20026;-91
2021/05/22 10:54:00;;;;;;;7.90;2.35;;;12.10;86.00;;;;;;4974048;28;20026;-90
2021/05/22 10:56:26;;;;;;;7.35;3.20;;;12.00;85.90;;;;;;4969810;28;20070;-90
2021/05/22 10:58:58;;;;;;;11.82;2.70;;;12.00;86.50;;;;;;4972183;28;20061;-90
2021/05/22 11:01:28;;;;;;;13.88;3.10;;;12.00;86.30;;;;;;4954893;28;20061;-90
2021/05/22 11:04:21;;;;;;;14.18;4.28;;;12.10;87.30;;;;;;4955213;28;20069;-90
2021/05/22 11:06:55;;;;;;;13.75;4.30;;;12.10;87.70;;;;;;4964962;28;20035;-89
2021/05/22 11:09:27;;;;;;;16.05;4.18;;;12.10;86.40;;;;;;4974831;28;20039;-90
2021/05/22 11:11:57;;;;;;;9.43;3.13;;;12.10;87.00;;;;;;4975096;28;20235;-90
2021/05/22 11:14:42;;;;;;;10.43;2.92;;;12.00;86.90;;;;;;4978201;28;20422;-89
2021/05/22 11:17:23;;;;;;;8.95;2.50;;;12.10;86.90;;;;;;4994987;28;20027;-90
2021/05/22 11:20:00;;;;;;;9.07;2.80;;;12.10;87.20;;;;;;4977796;28;20597;-89
2021/05/22 11:22:41;;;;;;;8.18;2.85;;;12.00;87.00;;;;;;4977798;28;20069;-90
2021/05/22 11:25:11;;;;;;;7.63;2.42;;;12.00;87.50;;;;;;4977814;28;20047;-90
2021/05/22 11:27:53;;;;;;;9.55;2.97;;;12.00;87.20;;;;;;4977445;28;20122;-89
2021/05/22 11:30:19;;;;;;;7.22;2.50;;;12.00;88.50;;;;;;4976359;28;20117;-89
2021/05/22 11:32:49;;;;;;;8.00;2.53;;;11.90;87.40;;;;;;4977031;28;20129;-89
2021/05/22 11:35:27;;;;;;;8.10;3.13;;;12.00;88.00;;;;;;4977654;28;20027;-90
2021/05/22 11:38:13;;;;;;;9.32;3.10;;;12.00;87.90;;;;;;4977001;28;20026;-89
2021/05/22 11:40:38;;;;;;;14.13;4.60;;;12.00;88.50;;;;;;4983835;28;20498;-90
2021/05/22 11:43:20;;;;;;;20.83;7.60;;;12.10;88.20;;;;;;4977116;28;20034;-90
2021/05/22 11:45:57;;;;;;;13.50;3.88;;;12.10;88.80;;;;;;4977292;28;20037;-90
2021/05/22 11:48:33;;;;;;;15.75;5.05;;;12.00;88.40;;;;;;4978232;28;20502;-90
2021/05/22 11:51:01;;;;;;;18.10;6.20;;;12.00;88.40;;;;;;4980694;28;20030;-89
2021/05/22 11:53:28;;;;;;;20.23;7.03;;;11.90;88.40;;;;;;4977145;28;20097;-89
2021/05/22 11:55:55;;;;;;;11.52;3.70;;;11.90;88.80;;;;;;4976724;28;20369;-90
2021/05/22 11:58:21;;;;;;;9.50;3.50;;;11.90;88.90;;;;;;4977185;28;20031;-89
2021/05/22 12:00:46;;;;;;;10.55;3.15;;;11.90;88.50;;;;;;4976955;28;20526;-89
2021/05/22 12:03:26;;;;;;;8.50;2.70;;;11.90;88.70;;;;;;4976696;28;20441;-90
2021/05/22 12:05:53;;;;;;;10.77;3.00;;;11.90;89.50;;;;;;4977144;28;20053;-90
2021/05/22 12:08:27;;;;;;;8.15;2.72;;;11.90;88.70;;;;;;4976831;28;20055;-89
2021/05/22 12:10:52;;;;;;;8.27;2.88;;;12.00;88.90;;;;;;4976790;28;20031;-90
2021/05/22 12:13:18;;;;;;;7.95;2.90;;;11.90;88.70;;;;;;4976874;28;20073;-90
2021/05/22 12:15:45;;;;;;;7.85;2.70;;;11.90;89.30;;;;;;4977478;28;20038;-90
2021/05/22 12:18:16;;;;;;;8.25;2.53;;;12.00;88.80;;;;;;4976530;28;20023;-89
2021/05/22 12:20:51;;;;;;;9.43;3.13;;;12.00;89.60;;;;;;4977614;28;20125;-89
2021/05/22 12:23:29;;;;;;;10.35;3.35;;;12.00;88.90;;;;;;4994145;28;20046;-89
2021/05/22 12:25:56;;;;;;;15.98;4.20;;;12.00;89.10;;;;;;4977376;28;20027;-89
2021/05/22 12:28:23;;;;;;;9.90;4.20;;;12.10;88.80;;;;;;4993886;28;20030;-88
2021/05/22 12:30:52;;;;;;;11.45;4.00;;;12.10;88.90;;;;;;4976785;28;20078;-89
2021/05/22 12:33:18;;;;;;;9.30;3.20;;;12.10;89.10;;;;;;4976516;28;20030;-89
2021/05/22 12:36:09;;;;;;;10.05;3.00;;;12.10;90.20;;;;;;4977052;28;20027;-90
2021/05/22 12:38:46;;;;;;;9.00;3.40;;;12.20;88.90;;;;;;4975786;28;20501;-89
2021/05/22 12:41:12;;;;;;;10.30;3.03;;;12.20;90.20;;;;;;5002728;28;20030;-88
2021/05/22 12:43:44;;;;;;;5.07;2.50;;;12.20;89.50;;;;;;4976771;28;20117;-89
2021/05/22 12:46:37;;;;;;;9.60;2.85;;;12.30;88.90;;;;;;4976437;28;20034;-90